• Join FlightAware (Why Join?)
  • Login
  • US Flag 
09:53AM EDT


 

Airport Tracker/Info


-or-


 

Live Flight TrackerFlight Track Log ✈ N100PM ✈ 02-Nov-2013 ✈ KIGM - KPSO

Flight Track Log - Related Links

Times and Time Zones

All times are in EDT time to prevent confusion due to time zone crossing. See the N100PM flight status page for this flight to view local times or setup timezone preferences in your user account.

Time Position Orientation Groundspeed Altitude Reporting Facility
EDT Latitude Longitude Course Direction KTS MPH feet Rate Location/Type
10:21AM 35.3947 -113.8369 50° Northeast 95 109 6,800  Level Los Angeles Center
10:22AM 35.4164 -113.8097 46° Northeast 93 107 7,300 420 Climbing Los Angeles Center
10:23AM 35.4358 -113.7881 42° Northeast 94 108 7,700 240 Climbing Los Angeles Center
10:24AM 35.4547 -113.7661 43° Northeast 94 108 7,900 240 Climbing Los Angeles Center
10:25AM 35.3339 -113.7124 39° Northeast  Level Estimated
10:25AM 35.4722 -113.7431 47° Northeast 93 107 8,200  Level Los Angeles Center
10:26AM 35.4842 -113.7161 61° Northeast 91 105 8,400 240 Climbing Los Angeles Center
10:27AM 35.4925 -113.6947 64° Northeast 90 104 8,700 300 Climbing Los Angeles Center
10:28AM 35.5083 -113.6628 59° Northeast 91 105 9,100 300 Climbing Los Angeles Center
10:29AM 35.5278 -113.6408 43° Northeast 92 106 9,400 240 Climbing Los Angeles Center
10:30AM 35.5494 -113.6114 48° Northeast 96 110 9,700 240 Climbing Los Angeles Center
10:31AM 35.5628 -113.5828 60° Northeast 97 112 10,000 240 Climbing Los Angeles Center
10:32AM 35.5778 -113.5542 57° Northeast 99 114 10,200 240 Climbing Los Angeles Center
10:33AM 35.5894 -113.5225 66° East 101 116 10,500 240 Climbing Los Angeles Center
10:34AM 35.6017 -113.4925 63° Northeast 100 115 10,800 240 Climbing Los Angeles Center
10:35AM 35.6108 -113.4606 71° East 100 115 11,100 240 Climbing Los Angeles Center
10:36AM 35.6189 -113.4292 72° East 98 113 11,300 240 Climbing Los Angeles Center
10:37AM 35.6253 -113.3978 76° East 94 108 11,700 240 Climbing Los Angeles Center
10:38AM 35.6322 -113.3667 75° East 94 108 11,900 180 Climbing Los Angeles Center
10:39AM 35.6464 -113.3303 64° Northeast 100 115 12,100  Climbing Los Angeles Center
10:40AM 35.6578 -113.2933 69° East 111 128 12,000  Descending Los Angeles Center
10:41AM 35.6650 -113.2497 78° East 119 137 12,200 60 Climbing Los Angeles Center
10:42AM 35.6678 -113.2114 85° East 120 138 12,200  Level Los Angeles Center
10:43AM 35.6717 -113.1681 84° East 119 137 12,200  Level Los Angeles Center
10:44AM 35.6783 -113.1306 78° East 120 138 12,200  Level Los Angeles Center
10:45AM 35.6839 -113.0861 81° East 122 140 12,200  Level Los Angeles Center
10:47AM 35.6944 -113.0492 71° East 123 142 12,200  Level Los Angeles Center
10:48AM 35.7128 -113.0033 64° Northeast 125 144 12,200  Level Los Angeles Center
10:49AM 35.7281 -112.9606 66° East 117 135 12,200  Level Los Angeles Center
10:50AM 35.7403 -112.9244 67° East 115 132 12,200  Level Los Angeles Center
10:51AM 35.7514 -112.8869 70° East 116 133 12,200  Level Los Angeles Center
10:52AM 35.7631 -112.8472 70° East 121 139 12,200  Level Los Angeles Center
10:53AM 35.7736 -112.8092 71° East 120 138 12,200  Level Los Angeles Center
10:54AM 35.7847 -112.7692 71° East 121 139 12,200  Level Los Angeles Center
10:55AM 35.7950 -112.7292 72° East 123 142 12,200  Level Los Angeles Center
10:56AM 35.8078 -112.6886 69° East 126 145 12,200  Level Los Angeles Center
10:57AM 35.8183 -112.6561 68° East 127 146 12,200  Level Los Angeles Center
10:58AM 35.8367 -112.5989 68° East 128 147 12,200 -120 Level Los Angeles Center
10:59AM 35.8489 -112.5544 71° East 135 155 12,000 -120 Descending Los Angeles Center
11:00AM 35.8603 -112.5114 72° East 134 154 12,000  Level Los Angeles Center
11:01AM 35.8675 -112.4786 75° East 128 147 12,100 60 Climbing Los Angeles Center
11:02AM 35.8789 -112.4311 74° East 122 140 12,200  Climbing Los Angeles Center
11:03AM 35.8869 -112.3906 76° East 123 142 12,200 -60 Level Los Angeles Center
11:04AM 35.8950 -112.3478 77° East 127 146 12,100 -120 Descending Los Angeles Center
11:05AM 35.9044 -112.3036 75° East 132 152 12,000 -60 Descending Los Angeles Center
11:06AM 35.9150 -112.2531 76° East 129 148 12,000  Level Los Angeles Center
11:07AM 35.9233 -112.2125 76° East 123 142 12,000  Level Los Angeles Center
11:08AM 35.9339 -112.1739 71° East 122 140 12,100 60 Climbing Los Angeles Center
11:09AM 35.9442 -112.1361 71° East 118 136 12,200  Climbing Los Angeles Center
11:10AM 35.9408 -112.0944 96° East 120 138 12,100 -60 Descending Los Angeles Center
11:11AM 35.9433 -112.0522 86° East 124 143 12,100  Level Los Angeles Center
11:12AM 35.9461 -112.0092 85° East 126 145 12,100  Level Los Angeles Center
11:13AM 35.9497 -111.9586 85° East 125 144 12,100  Level Los Angeles Center
11:14AM 35.9500 -111.9136 90° East 125 144 12,100  Level Los Angeles Center
11:15AM 35.9475 -111.8711 94° East 125 144 12,100  Level Los Angeles Center
11:16AM 35.9436 -111.8303 97° East 122 140 12,100  Level Los Angeles Center
11:18AM 35.9433 -111.7828 90° East 119 137 12,100  Level Los Angeles Center
11:19AM 35.9550 -111.7403 71° East 127 146 12,100  Level Los Angeles Center
11:20AM 35.9669 -111.6997 70° East 127 146 12,100  Level Los Angeles Center
11:21AM 35.9819 -111.6511 69° East 127 146 12,100  Level Los Angeles Center
11:22AM 35.9961 -111.6092 67° East 130 150 12,100 60 Level Los Angeles Center
11:22AM 36.0014 -111.5942 66° East 126 145 12,200 60 Climbing Denver Center
11:23AM 36.0189 -111.5428 67° East 129 148 12,200  Level Denver Center
11:24AM 36.0319 -111.5006 69° East 131 151 12,200  Level Denver Center
11:25AM 36.0467 -111.4592 66° East 130 150 12,200  Level Denver Center
11:26AM 36.0592 -111.4181 69° East 130 150 12,200  Level Denver Center
11:27AM 36.0722 -111.3789 68° East 127 146 12,200  Level Denver Center
11:29AM 36.0850 -111.3367 69° East 128 147 12,200  Level Denver Center
11:30AM 36.1000 -111.2869 70° East 129 148 12,200  Level Denver Center
11:31AM 36.1136 -111.2433 69° East 131 151 12,200  Level Denver Center
11:32AM 36.1242 -111.2017 73° East 131 151 12,200  Level Denver Center
11:33AM 36.1292 -111.1581 82° East 131 151 12,200  Level Denver Center
11:34AM 36.1347 -111.1161 81° East 129 148 12,200  Level Denver Center
11:35AM 36.1428 -111.0739 77° East 128 147 12,200  Level Denver Center
11:36AM 36.1628 -111.0244 63° Northeast 126 145 12,200  Level Denver Center
11:37AM 36.1772 -110.9839 66° East 127 146 12,200  Level Denver Center
11:38AM 36.1911 -110.9433 67° East 127 146 12,200  Level Denver Center
11:39AM 36.2044 -110.9003 69° East 130 150 12,200  Level Denver Center
11:40AM 36.2156 -110.8567 72° East 132 152 12,200  Level Denver Center
11:41AM 36.2261 -110.8042 76° East 133 153 12,200  Level Denver Center
11:42AM 36.2333 -110.7614 78° East 132 152 12,200  Level Denver Center
11:43AM 36.2394 -110.7183 80° East 131 151 12,200  Level Denver Center
11:44AM 36.2458 -110.6753 80° East 130 150 12,200  Level Denver Center
11:45AM 36.2536 -110.6311 78° East 130 150 12,200  Level Denver Center
11:46AM 36.2628 -110.5872 75° East 131 151 12,200  Level Denver Center
11:47AM 36.2728 -110.5350 77° East 131 151 12,200  Level Denver Center
11:48AM 36.2814 -110.4914 76° East 131 151 12,200  Level Denver Center
11:49AM 36.2917 -110.4469 74° East 132 152 12,200  Level Denver Center
11:50AM 36.3008 -110.4036 75° East 132 152 12,200  Level Denver Center
11:51AM 36.3122 -110.3586 73° East 134 154 12,200  Level Denver Center
11:52AM 36.3208 -110.3131 77° East 136 157 12,200  Level Denver Center
11:53AM 36.3314 -110.2594 76° East 135 155 12,200  Level Denver Center
11:54AM 36.3411 -110.2142 75° East 135 155 12,200  Level Denver Center
11:55AM 36.3500 -110.1700 76° East 134 154 12,200  Level Denver Center
11:56AM 36.3600 -110.1208 76° East 134 154 12,200  Level Denver Center
11:57AM 36.3692 -110.0781 75° East 134 154 12,200  Level Denver Center
11:59AM 36.3794 -110.0275 76° East 135 155 12,200  Level Denver Center
12:00PM 36.3878 -109.9833 77° East 137 158 12,200  Level Denver Center
12:01PM 36.3989 -109.9322 75° East 137 158 12,200  Level Denver Center
12:02PM 36.4069 -109.8894 77° East 136 157 12,200  Level Denver Center
12:03PM 36.4144 -109.8467 78° East 134 154 12,200  Level Denver Center
12:04PM 36.4247 -109.7961 76° East 134 154 12,200  Level Denver Center
12:05PM 36.4328 -109.7525 77° East 135 155 12,200  Level Denver Center
12:06PM 36.4425 -109.7022 76° East 135 155 12,200  Level Denver Center
12:07PM 36.4511 -109.6611 75° East 132 152 12,200  Level Denver Center
12:08PM 36.4619 -109.6114 75° East 132 152 12,200  Level Denver Center
12:09PM 36.4700 -109.5678 77° East 133 153 12,200  Level Denver Center
12:10PM 36.4794 -109.5169 77° East 135 155 12,200  Level Denver Center
12:11PM 36.4869 -109.4739 78° East 134 154 12,200  Level Denver Center
12:12PM 36.4972 -109.4233 76° East 133 153 12,200  Level Denver Center
12:13PM 36.5053 -109.3792 77° East 136 157 12,200  Level Denver Center
12:14PM 36.5136 -109.3356 77° East 136 157 12,200  Level Denver Center
12:15PM 36.5231 -109.2861 77° East 134 154 12,200  Level Denver Center
12:16PM 36.5308 -109.2444 77° East 132 152 12,200 -60 Level Denver Center
12:17PM 36.5397 -109.1944 78° East 131 151 12,100 -60 Descending Denver Center
12:18PM 36.5481 -109.1508 77° East 133 153 12,100  Level Denver Center
12:19PM 36.5575 -109.1011 77° East 133 153 12,100  Level Denver Center
12:20PM 36.5658 -109.0592 76° East 131 151 12,100  Level Denver Center
12:21PM 36.5769 -109.0114 74° East 130 150 12,100  Level Denver Center
12:22PM 36.5844 -108.9692 78° East 130 150 12,100  Level Denver Center
12:23PM 36.5928 -108.9278 76° East 129 148 12,100  Level Denver Center
12:24PM 36.6022 -108.8781 77° East 131 151 12,100  Level Denver Center
12:25PM 36.6097 -108.8356 78° East 131 151 12,100  Level Denver Center
12:26PM 36.6192 -108.7864 77° East 131 151 12,100  Level Denver Center
12:27PM 36.6275 -108.7444 76° East 131 151 12,100  Level Denver Center
12:28PM 36.6356 -108.6956 78° East 130 150 12,100  Level Denver Center
12:30PM 36.6428 -108.6536 78° East 130 150 12,100  Level Denver Center
12:31PM 36.6517 -108.6047 77° East 129 148 12,100  Level Denver Center
12:32PM 36.6603 -108.5625 76° East 130 150 12,100  Level Denver Center
12:33PM 36.6689 -108.5136 78° East 130 150 12,100  Level Denver Center
12:34PM 36.6764 -108.4708 78° East 131 151 12,100  Level Denver Center
12:35PM 36.6836 -108.4278 78° East 132 152 12,100  Level Denver Center
12:36PM 36.6942 -108.3794 75° East 131 151 12,100  Level Denver Center
12:37PM 36.7022 -108.3381 76° East 130 150 12,100  Level Denver Center
12:38PM 36.7108 -108.2900 77° East 128 147 12,100  Level Denver Center
12:39PM 36.7181 -108.2486 78° East 127 146 12,100  Level Denver Center
12:40PM 36.7272 -108.2000 77° East 128 147 12,100  Level Denver Center
12:41PM 36.7339 -108.1575 79° East 129 148 12,100  Level Denver Center
12:42PM 36.7425 -108.1094 77° East 128 147 12,100  Level Denver Center
12:43PM 36.7578 -108.0703 64° Northeast 130 150 12,100  Level Denver Center
12:44PM 36.7811 -108.0308 54° Northeast 129 148 12,100  Level Denver Center
12:45PM 36.8006 -107.9964 55° Northeast 127 146 12,100  Level Denver Center
12:46PM 36.8161 -107.9508 67° East 126 145 12,100  Level Denver Center
12:47PM 36.8247 -107.9094 75° East 127 146 12,100  Level Denver Center
12:48PM 36.8333 -107.8672 76° East 127 146 12,100  Level Denver Center
12:49PM 36.8436 -107.8253 73° East 127 146 12,100  Level Denver Center
12:50PM 36.8581 -107.7750 70° East 128 147 12,100  Level Denver Center
12:51PM 36.8692 -107.7333 72° East 128 147 12,100  Level Denver Center
12:52PM 36.8814 -107.6914 70° East 129 148 12,100  Level Denver Center
12:53PM 36.8917 -107.6486 73° East 129 148 12,100  Level Denver Center
12:54PM 36.9019 -107.6069 73° East 126 145 12,100  Level Denver Center
12:55PM 36.9017 -107.5625 90° East 128 147 12,100  Level Denver Center
12:56PM 36.9044 -107.5089 86° East 130 150 12,100  Level Denver Center
12:57PM 36.9100 -107.4653 81° East 128 147 12,100  Level Denver Center
12:58PM 36.9144 -107.4222 83° East 126 145 12,100  Level Denver Center
12:59PM 36.9172 -107.3783 85° East 125 144 12,100  Level Denver Center
01:01PM 36.9208 -107.3322 84° East 126 145 12,100  Level Denver Center
01:02PM 36.9228 -107.2872 87° East 128 147 12,100 -60 Level Denver Center
01:03PM 36.9289 -107.2081 84° East 152 175 12,000 -60 Descending Denver Center
01:04PM 36.9314 -107.1672 86° East 133 153 12,000  Level Denver Center
01:05PM 36.9364 -107.1189 83° East 129 148 12,100  Climbing Denver Center
01:06PM 36.9431 -107.0736 80° East 129 148 12,000 -120 Descending Denver Center